sensor_id;sensor_type;location;lat;lon;timestamp;pressure;altitude;pressure_sealevel;temperature;humidity
17254;BME280;32542;52.832;13.816;2023-08-31T00:02:21;100460.13;;;23.32;51.57
17254;BME280;32542;52.832;13.816;2023-08-31T00:05:24;100461.06;;;23.31;51.51
17254;BME280;32542;52.832;13.816;2023-08-31T00:08:30;100467.28;;;23.32;51.47
17254;BME280;32542;52.832;13.816;2023-08-31T00:11:34;100470.91;;;23.31;51.48
17254;BME280;32542;52.832;13.816;2023-08-31T00:14:38;100475.28;;;23.32;51.49
17254;BME280;32542;52.832;13.816;2023-08-31T00:17:41;100464.72;;;23.30;51.26
17254;BME280;32542;52.832;13.816;2023-08-31T00:20:44;100457.63;;;23.29;51.27
17254;BME280;32542;52.832;13.816;2023-08-31T00:23:47;100462.09;;;23.28;51.55
17254;BME280;32542;52.832;13.816;2023-08-31T00:26:50;100457.63;;;23.29;51.44
17254;BME280;32542;52.832;13.816;2023-08-31T00:29:54;100454.97;;;23.29;51.51
17254;BME280;32542;52.832;13.816;2023-08-31T00:32:59;100454.09;;;23.28;51.64
17254;BME280;32542;52.832;13.816;2023-08-31T00:36:02;100459.44;;;23.28;51.40
17254;BME280;32542;52.832;13.816;2023-08-31T00:39:06;100454.97;;;23.29;51.63
17254;BME280;32542;52.832;13.816;2023-08-31T00:42:13;100457.63;;;23.29;51.28
17254;BME280;32542;52.832;13.816;2023-08-31T00:45:18;100450.59;;;23.28;51.32
17254;BME280;32542;52.832;13.816;2023-08-31T00:48:22;100455.06;;;23.27;51.55
17254;BME280;32542;52.832;13.816;2023-08-31T00:51:25;100442.66;;;23.26;51.36
17254;BME280;32542;52.832;13.816;2023-08-31T00:54:27;100441.81;;;23.26;51.44
17254;BME280;32542;52.832;13.816;2023-08-31T00:57:31;100439.16;;;23.26;51.52
17254;BME280;32542;52.832;13.816;2023-08-31T01:00:42;100437.31;;;23.26;51.36
17254;BME280;32542;52.832;13.816;2023-08-31T01:03:50;100431.13;;;23.26;51.57
17254;BME280;32542;52.832;13.816;2023-08-31T01:07:02;100436.47;;;23.26;51.63
17254;BME280;32542;52.832;13.816;2023-08-31T01:10:16;100437.31;;;23.26;51.51
17254;BME280;32542;52.832;13.816;2023-08-31T01:13:24;100427.59;;;23.25;51.85
17254;BME280;32542;52.832;13.816;2023-08-31T01:16:29;100421.38;;;23.25;51.64
17254;BME280;32542;52.832;13.816;2023-08-31T01:19:44;100426.72;;;23.25;51.47
17254;BME280;32542;52.832;13.816;2023-08-31T01:22:55;100416.03;;;23.25;51.43
17254;BME280;32542;52.832;13.816;2023-08-31T01:26:01;100426.72;;;23.25;51.62
17254;BME280;32542;52.832;13.816;2023-08-31T01:29:05;100430.38;;;23.24;51.69
17254;BME280;32542;52.832;13.816;2023-08-31T01:32:09;100425.97;;;23.23;51.69
17254;BME280;32542;52.832;13.816;2023-08-31T01:35:14;100433.03;;;23.24;51.78
17254;BME280;32542;52.832;13.816;2023-08-31T01:38:25;100431.31;;;23.23;51.66
17254;BME280;32542;52.832;13.816;2023-08-31T01:41:34;100427.69;;;23.24;51.68
17254;BME280;32542;52.832;13.816;2023-08-31T01:44:37;100431.31;;;23.23;51.59
17254;BME280;32542;52.832;13.816;2023-08-31T01:47:41;100425.97;;;23.23;51.58
17254;BME280;32542;52.832;13.816;2023-08-31T01:50:44;100433.97;;;23.23;51.62
17254;BME280;32542;52.832;13.816;2023-08-31T01:53:47;100434.84;;;23.23;51.65
17254;BME280;32542;52.832;13.816;2023-08-31T01:56:52;100442.00;;;23.23;51.55
17254;BME280;32542;52.832;13.816;2023-08-31T01:59:56;100447.34;;;23.23;51.58
17254;BME280;32542;52.832;13.816;2023-08-31T02:02:59;100446.47;;;23.22;51.68
17254;BME280;32542;52.832;13.816;2023-08-31T02:06:02;100442.97;;;23.22;51.90
17254;BME280;32542;52.832;13.816;2023-08-31T02:09:05;100456.31;;;23.22;51.71
17254;BME280;32542;52.832;13.816;2023-08-31T02:12:10;100456.31;;;23.22;51.67
17254;BME280;32542;52.832;13.816;2023-08-31T02:15:13;100462.59;;;23.21;51.71
17254;BME280;32542;52.832;13.816;2023-08-31T02:18:16;100467.94;;;23.21;51.86
17254;BME280;32542;52.832;13.816;2023-08-31T02:21:19;100463.56;;;23.20;51.91
17254;BME280;32542;52.832;13.816;2023-08-31T02:24:23;100469.75;;;23.20;51.79
17254;BME280;32542;52.832;13.816;2023-08-31T02:27:27;100480.44;;;23.20;51.72
17254;BME280;32542;52.832;13.816;2023-08-31T02:30:30;100475.97;;;23.21;51.85
17254;BME280;32542;52.832;13.816;2023-08-31T02:33:33;100479.59;;;23.20;51.66
17254;BME280;32542;52.832;13.816;2023-08-31T02:36:36;100481.41;;;23.19;51.93
17254;BME280;32542;52.832;13.816;2023-08-31T02:39:39;100486.81;;;23.18;51.87
17254;BME280;32542;52.832;13.816;2023-08-31T02:42:44;100486.81;;;23.18;51.55
17254;BME280;32542;52.832;13.816;2023-08-31T02:45:48;100485.03;;;23.18;51.78
17254;BME280;32542;52.832;13.816;2023-08-31T02:48:51;100482.44;;;23.17;51.80
17254;BME280;32542;52.832;13.816;2023-08-31T02:51:54;100491.41;;;23.16;51.60
17254;BME280;32542;52.832;13.816;2023-08-31T02:54:57;100500.28;;;23.16;51.60
17254;BME280;32542;52.832;13.816;2023-08-31T02:58:02;100495.81;;;23.17;51.65
17254;BME280;32542;52.832;13.816;2023-08-31T03:01:07;100488.72;;;23.16;51.63
17254;BME280;32542;52.832;13.816;2023-08-31T03:04:14;100495.81;;;23.17;51.67
17254;BME280;32542;52.832;13.816;2023-08-31T03:07:18;100495.81;;;23.17;51.85
17254;BME280;32542;52.832;13.816;2023-08-31T03:10:21;100495.81;;;23.17;51.88
17254;BME280;32542;52.832;13.816;2023-08-31T03:13:25;100494.94;;;23.16;51.90
17254;BME280;32542;52.832;13.816;2023-08-31T03:16:28;100499.41;;;23.16;51.89
17254;BME280;32542;52.832;13.816;2023-08-31T03:19:32;100503.06;;;23.15;51.82
17254;BME280;32542;52.832;13.816;2023-08-31T03:22:35;100499.41;;;23.16;51.87
17254;BME280;32542;52.832;13.816;2023-08-31T03:25:38;100496.84;;;23.14;51.74
17254;BME280;32542;52.832;13.816;2023-08-31T03:28:43;100490.66;;;23.14;51.75
17254;BME280;32542;52.832;13.816;2023-08-31T03:31:46;100505.84;;;23.13;51.83
17254;BME280;32542;52.832;13.816;2023-08-31T03:34:50;100505.84;;;23.13;51.84
17254;BME280;32542;52.832;13.816;2023-08-31T03:37:53;100521.00;;;23.13;51.97
17254;BME280;32542;52.832;13.816;2023-08-31T03:40:57;100519.09;;;23.15;52.00
17254;BME280;32542;52.832;13.816;2023-08-31T03:44:02;100519.09;;;23.15;51.94
17254;BME280;32542;52.832;13.816;2023-08-31T03:47:08;100525.38;;;23.14;51.80
17254;BME280;32542;52.832;13.816;2023-08-31T03:50:11;100526.25;;;23.14;51.99
17254;BME280;32542;52.832;13.816;2023-08-31T03:53:14;100531.69;;;23.13;52.01
17254;BME280;32542;52.832;13.816;2023-08-31T03:56:17;100533.38;;;23.14;51.97
17254;BME280;32542;52.832;13.816;2023-08-31T03:59:21;100533.38;;;23.14;51.97
17254;BME280;32542;52.832;13.816;2023-08-31T04:02:25;100537.03;;;23.13;52.04
17254;BME280;32542;52.832;13.816;2023-08-31T04:05:32;100533.50;;;23.12;51.89
17254;BME280;32542;52.832;13.816;2023-08-31T04:08:35;100525.56;;;23.11;52.15
17254;BME280;32542;52.832;13.816;2023-08-31T04:11:38;100535.28;;;23.12;51.85
17254;BME280;32542;52.832;13.816;2023-08-31T04:14:43;100538.94;;;23.11;52.12
17254;BME280;32542;52.832;13.816;2023-08-31T04:17:46;100542.47;;;23.11;52.12
17254;BME280;32542;52.832;13.816;2023-08-31T04:20:49;100540.63;;;23.12;52.10
17254;BME280;32542;52.832;13.816;2023-08-31T04:23:53;100545.13;;;23.11;51.97
17254;BME280;32542;52.832;13.816;2023-08-31T04:26:56;100545.97;;;23.12;52.05
17254;BME280;32542;52.832;13.816;2023-08-31T04:30:01;100554.00;;;23.12;51.95
17254;BME280;32542;52.832;13.816;2023-08-31T04:33:06;100554.97;;;23.11;51.96
17254;BME280;32542;52.832;13.816;2023-08-31T04:36:09;100554.97;;;23.11;51.80
17254;BME280;32542;52.832;13.816;2023-08-31T04:39:12;100558.56;;;23.10;51.98
17254;BME280;32542;52.832;13.816;2023-08-31T04:42:15;100561.25;;;23.10;52.06
17254;BME280;32542;52.832;13.816;2023-08-31T04:45:20;100562.22;;;23.09;51.79
17254;BME280;32542;52.832;13.816;2023-08-31T04:48:24;100567.56;;;23.09;51.96
17254;BME280;32542;52.832;13.816;2023-08-31T04:51:29;100570.22;;;23.09;52.04
17254;BME280;32542;52.832;13.816;2023-08-31T04:54:32;100564.88;;;23.09;52.04
17254;BME280;32542;52.832;13.816;2023-08-31T04:57:35;100578.22;;;23.09;52.08
17254;BME280;32542;52.832;13.816;2023-08-31T05:00:39;100579.94;;;23.10;52.02
17254;BME280;32542;52.832;13.816;2023-08-31T05:03:42;100580.03;;;23.08;52.11
17254;BME280;32542;52.832;13.816;2023-08-31T05:06:45;100582.59;;;23.10;51.79
17254;BME280;32542;52.832;13.816;2023-08-31T05:09:48;100582.72;;;23.08;51.77
17254;BME280;32542;52.832;13.816;2023-08-31T05:12:51;100579.16;;;23.08;51.67
17254;BME280;32542;52.832;13.816;2023-08-31T05:15:56;100579.16;;;23.08;51.99
17254;BME280;32542;52.832;13.816;2023-08-31T05:18:59;100580.97;;;23.07;52.02
17254;BME280;32542;52.832;13.816;2023-08-31T05:22:02;100572.97;;;23.07;51.95
17254;BME280;32542;52.832;13.816;2023-08-31T05:25:05;100579.28;;;23.06;51.82
17254;BME280;32542;52.832;13.816;2023-08-31T05:28:08;100582.81;;;23.07;51.89
17254;BME280;32542;52.832;13.816;2023-08-31T05:31:12;100583.75;;;23.06;51.81
17254;BME280;32542;52.832;13.816;2023-08-31T05:34:16;100588.16;;;23.07;52.09
17254;BME280;32542;52.832;13.816;2023-08-31T05:37:19;100590.81;;;23.07;52.04
17254;BME280;32542;52.832;13.816;2023-08-31T05:40:22;100591.66;;;23.07;51.96
17254;BME280;32542;52.832;13.816;2023-08-31T05:43:25;100597.00;;;23.07;52.01
17254;BME280;32542;52.832;13.816;2023-08-31T05:46:29;100597.88;;;23.08;51.83
17254;BME280;32542;52.832;13.816;2023-08-31T05:49:33;100603.22;;;23.08;51.87
17254;BME280;32542;52.832;13.816;2023-08-31T05:52:36;100606.84;;;23.07;52.12
17254;BME280;32542;52.832;13.816;2023-08-31T05:55:39;100603.22;;;23.08;52.24
17254;BME280;32542;52.832;13.816;2023-08-31T05:58:43;100605.97;;;23.06;52.22
17254;BME280;32542;52.832;13.816;2023-08-31T06:01:47;100622.88;;;23.07;52.11
17254;BME280;32542;52.832;13.816;2023-08-31T06:04:50;100621.03;;;23.07;51.99
17254;BME280;32542;52.832;13.816;2023-08-31T06:07:53;100624.59;;;23.08;52.30
17254;BME280;32542;52.832;13.816;2023-08-31T06:10:56;100629.91;;;23.08;52.00
17254;BME280;32542;52.832;13.816;2023-08-31T06:14:00;100629.00;;;23.09;52.05
17254;BME280;32542;52.832;13.816;2023-08-31T06:17:04;100641.47;;;23.08;52.08
17254;BME280;32542;52.832;13.816;2023-08-31T06:20:08;100637.94;;;23.08;51.95
17254;BME280;32542;52.832;13.816;2023-08-31T06:23:11;100636.13;;;23.08;52.13
17254;BME280;32542;52.832;13.816;2023-08-31T06:26:15;100645.09;;;23.07;52.07
17254;BME280;32542;52.832;13.816;2023-08-31T06:29:17;100644.25;;;23.07;52.14
17254;BME280;32542;52.832;13.816;2023-08-31T06:32:22;100645.09;;;23.07;52.12
17254;BME280;32542;52.832;13.816;2023-08-31T06:35:25;100649.59;;;23.07;52.28
17254;BME280;32542;52.832;13.816;2023-08-31T06:38:28;100642.50;;;23.06;52.16
17254;BME280;32542;52.832;13.816;2023-08-31T06:41:31;100634.50;;;23.06;51.89
17254;BME280;32542;52.832;13.816;2023-08-31T06:44:35;100637.16;;;23.06;52.26
17254;BME280;32542;52.832;13.816;2023-08-31T06:47:39;100647.84;;;23.06;51.87
17254;BME280;32542;52.832;13.816;2023-08-31T06:50:42;100641.63;;;23.05;52.11
17254;BME280;32542;52.832;13.816;2023-08-31T06:53:46;100652.25;;;23.07;52.25
17254;BME280;32542;52.832;13.816;2023-08-31T06:56:49;100643.38;;;23.06;52.09
17254;BME280;32542;52.832;13.816;2023-08-31T06:59:52;100660.28;;;23.07;51.90
17254;BME280;32542;52.832;13.816;2023-08-31T07:02:57;100670.94;;;23.07;52.12
17254;BME280;32542;52.832;13.816;2023-08-31T07:06:00;100672.66;;;23.08;52.20
17254;BME280;32542;52.832;13.816;2023-08-31T07:09:04;100684.22;;;23.08;52.07
17254;BME280;32542;52.832;13.816;2023-08-31T07:12:10;100690.41;;;23.09;52.23
17254;BME280;32542;52.832;13.816;2023-08-31T07:15:15;100696.63;;;23.09;52.19
17254;BME280;32542;52.832;13.816;2023-08-31T07:18:21;100693.09;;;23.09;52.21
17254;BME280;32542;52.832;13.816;2023-08-31T07:21:25;100691.28;;;23.09;52.04
17254;BME280;32542;52.832;13.816;2023-08-31T07:24:30;100692.13;;;23.10;52.16
17254;BME280;32542;52.832;13.816;2023-08-31T07:27:37;100685.84;;;23.11;51.95
17254;BME280;32542;52.832;13.816;2023-08-31T07:30:40;100684.03;;;23.11;51.99
17254;BME280;32542;52.832;13.816;2023-08-31T07:33:45;100687.56;;;23.12;52.08
17254;BME280;32542;52.832;13.816;2023-08-31T07:36:50;100690.31;;;23.10;52.17
17254;BME280;32542;52.832;13.816;2023-08-31T07:39:54;100694.72;;;23.11;52.04
17254;BME280;32542;52.832;13.816;2023-08-31T07:42:58;100699.19;;;23.11;51.89
17254;BME280;32542;52.832;13.816;2023-08-31T07:46:02;100694.78;;;23.10;52.07
17254;BME280;32542;52.832;13.816;2023-08-31T07:49:07;100692.13;;;23.10;51.98
17254;BME280;32542;52.832;13.816;2023-08-31T07:52:10;100707.31;;;23.09;51.76
17254;BME280;32542;52.832;13.816;2023-08-31T07:55:13;100714.47;;;23.09;52.04
17254;BME280;32542;52.832;13.816;2023-08-31T07:58:16;100718.06;;;23.08;51.84
17254;BME280;32542;52.832;13.816;2023-08-31T08:01:19;100718.94;;;23.08;52.02
17254;BME280;32542;52.832;13.816;2023-08-31T08:04:23;100728.75;;;23.08;52.11
17254;BME280;32542;52.832;13.816;2023-08-31T08:07:27;100722.47;;;23.09;52.11
17254;BME280;32542;52.832;13.816;2023-08-31T08:10:30;100721.59;;;23.08;52.05
17254;BME280;32542;52.832;13.816;2023-08-31T08:13:33;100727.81;;;23.09;51.75
17254;BME280;32542;52.832;13.816;2023-08-31T08:16:36;100725.22;;;23.07;51.86
17254;BME280;32542;52.832;13.816;2023-08-31T08:19:40;100737.63;;;23.08;51.66
17254;BME280;32542;52.832;13.816;2023-08-31T08:22:43;100730.56;;;23.07;51.91
17254;BME280;32542;52.832;13.816;2023-08-31T08:25:46;100732.38;;;23.07;51.61
17254;BME280;32542;52.832;13.816;2023-08-31T08:28:49;100731.53;;;23.06;51.81
17254;BME280;32542;52.832;13.816;2023-08-31T08:31:52;100731.53;;;23.06;51.92
17254;BME280;32542;52.832;13.816;2023-08-31T08:34:57;100730.66;;;23.06;51.59
17254;BME280;32542;52.832;13.816;2023-08-31T08:38:00;100729.72;;;23.07;51.78
17254;BME280;32542;52.832;13.816;2023-08-31T08:41:06;100720.84;;;23.06;51.71
17254;BME280;32542;52.832;13.816;2023-08-31T08:44:10;100727.03;;;23.07;51.94
17254;BME280;32542;52.832;13.816;2023-08-31T08:47:14;100736.75;;;23.08;51.86
17254;BME280;32542;52.832;13.816;2023-08-31T08:50:19;100735.06;;;23.07;51.64
17254;BME280;32542;52.832;13.816;2023-08-31T08:53:25;100738.66;;;23.06;51.77
17254;BME280;32542;52.832;13.816;2023-08-31T08:56:28;100737.72;;;23.07;51.42
17254;BME280;32542;52.832;13.816;2023-08-31T08:59:31;100738.66;;;23.06;51.67
17254;BME280;32542;52.832;13.816;2023-08-31T09:02:34;100737.78;;;23.05;51.69
17254;BME280;32542;52.832;13.816;2023-08-31T09:05:38;100741.44;;;23.04;51.49
17254;BME280;32542;52.832;13.816;2023-08-31T09:08:42;100748.47;;;23.05;51.39
17254;BME280;32542;52.832;13.816;2023-08-31T09:11:45;100752.13;;;23.04;51.33
17254;BME280;32542;52.832;13.816;2023-08-31T09:14:58;100748.56;;;23.04;51.54
17254;BME280;32542;52.832;13.816;2023-08-31T09:18:01;100758.34;;;23.05;51.63
17254;BME280;32542;52.832;13.816;2023-08-31T09:21:06;100757.47;;;23.04;51.60
17254;BME280;32542;52.832;13.816;2023-08-31T09:24:09;100747.66;;;23.05;51.79
17254;BME280;32542;52.832;13.816;2023-08-31T09:27:14;100744.09;;;23.04;51.74
17254;BME280;32542;52.832;13.816;2023-08-31T09:30:17;100748.56;;;23.04;51.09
17254;BME280;32542;52.832;13.816;2023-08-31T09:33:20;100755.72;;;23.03;51.32
17254;BME280;32542;52.832;13.816;2023-08-31T09:36:26;100758.34;;;23.05;51.42
17254;BME280;32542;52.832;13.816;2023-08-31T09:39:35;100756.59;;;23.04;51.07
17254;BME280;32542;52.832;13.816;2023-08-31T09:42:38;100754.03;;;23.02;51.02
17254;BME280;32542;52.832;13.816;2023-08-31T09:45:42;100765.56;;;23.03;51.31
17254;BME280;32542;52.832;13.816;2023-08-31T09:48:47;100750.47;;;23.02;51.20
17254;BME280;32542;52.832;13.816;2023-08-31T09:51:52;100753.16;;;23.02;51.11
17254;BME280;32542;52.832;13.816;2023-08-31T09:54:56;100754.88;;;23.03;51.52
17254;BME280;32542;52.832;13.816;2023-08-31T09:58:01;100760.22;;;23.03;51.38
17254;BME280;32542;52.832;13.816;2023-08-31T10:01:17;100769.19;;;23.02;51.21
17254;BME280;32542;52.832;13.816;2023-08-31T10:04:31;100759.34;;;23.02;51.19
17254;BME280;32542;52.832;13.816;2023-08-31T10:07:36;100759.34;;;23.02;50.95
17254;BME280;32542;52.832;13.816;2023-08-31T10:10:40;100759.47;;;23.01;51.12
17254;BME280;32542;52.832;13.816;2023-08-31T10:13:44;100758.50;;;23.02;50.80
17254;BME280;32542;52.832;13.816;2023-08-31T10:16:50;100760.28;;;23.01;50.76
17254;BME280;32542;52.832;13.816;2023-08-31T10:19:55;100762.19;;;22.99;50.86
17254;BME280;32542;52.832;13.816;2023-08-31T10:23:02;100762.19;;;22.99;50.78
17254;BME280;32542;52.832;13.816;2023-08-31T10:26:05;100755.06;;;23.00;50.60
17254;BME280;32542;52.832;13.816;2023-08-31T10:29:25;100758.66;;;22.99;50.77
17254;BME280;32542;52.832;13.816;2023-08-31T10:32:30;100755.97;;;22.99;50.79
17254;BME280;32542;52.832;13.816;2023-08-31T10:35:41;100762.19;;;22.99;50.82
17254;BME280;32542;52.832;13.816;2023-08-31T10:38:50;100755.06;;;23.00;50.96
17254;BME280;32542;52.832;13.816;2023-08-31T10:42:02;100767.53;;;22.99;51.00
17254;BME280;32542;52.832;13.816;2023-08-31T10:45:06;100769.34;;;22.99;50.73
17254;BME280;32542;52.832;13.816;2023-08-31T10:48:09;100766.66;;;22.99;50.31
17254;BME280;32542;52.832;13.816;2023-08-31T10:51:16;100762.28;;;22.98;50.47
17254;BME280;32542;52.832;13.816;2023-08-31T10:54:23;100756.94;;;22.98;50.16
17254;BME280;32542;52.832;13.816;2023-08-31T10:57:29;100762.28;;;22.98;50.47
17254;BME280;32542;52.832;13.816;2023-08-31T11:00:46;100757.88;;;22.97;50.60
17254;BME280;32542;52.832;13.816;2023-08-31T11:03:59;100755.22;;;22.97;50.28
17254;BME280;32542;52.832;13.816;2023-08-31T11:07:13;100760.56;;;22.97;50.68
17254;BME280;32542;52.832;13.816;2023-08-31T11:10:18;100758.84;;;22.96;50.81
17254;BME280;32542;52.832;13.816;2023-08-31T11:13:23;100768.56;;;22.97;50.87
17254;BME280;32542;52.832;13.816;2023-08-31T11:16:26;100760.56;;;22.97;50.82
17254;BME280;32542;52.832;13.816;2023-08-31T11:19:29;100762.28;;;22.98;50.88
17254;BME280;32542;52.832;13.816;2023-08-31T11:22:33;100761.41;;;22.97;50.64
17254;BME280;32542;52.832;13.816;2023-08-31T11:25:37;100763.22;;;22.97;50.74
17254;BME280;32542;52.832;13.816;2023-08-31T11:28:43;100760.56;;;22.97;50.44
17254;BME280;32542;52.832;13.816;2023-08-31T11:31:48;100763.31;;;22.95;50.42
17254;BME280;32542;52.832;13.816;2023-08-31T11:34:51;100760.66;;;22.95;50.33
17254;BME280;32542;52.832;13.816;2023-08-31T11:37:55;100775.81;;;22.95;50.43
17254;BME280;32542;52.832;13.816;2023-08-31T11:41:00;100775.81;;;22.95;50.55
17254;BME280;32542;52.832;13.816;2023-08-31T11:44:03;100780.31;;;22.94;50.25
17254;BME280;32542;52.832;13.816;2023-08-31T11:47:07;100783.81;;;22.95;50.66
17254;BME280;32542;52.832;13.816;2023-08-31T11:50:11;100778.47;;;22.95;50.73
17254;BME280;32542;52.832;13.816;2023-08-31T11:53:15;100773.13;;;22.95;50.75
17254;BME280;32542;52.832;13.816;2023-08-31T11:56:20;100778.47;;;22.95;50.68
17254;BME280;32542;52.832;13.816;2023-08-31T11:59:23;100781.16;;;22.95;50.63
17254;BME280;32542;52.832;13.816;2023-08-31T12:02:26;100774.09;;;22.94;50.43
17254;BME280;32542;52.832;13.816;2023-08-31T12:05:44;100773.13;;;22.95;50.29
17254;BME280;32542;52.832;13.816;2023-08-31T12:08:48;100778.47;;;22.95;50.34
17254;BME280;32542;52.832;13.816;2023-08-31T12:11:53;100774.09;;;22.94;50.13
17254;BME280;32542;52.832;13.816;2023-08-31T12:14:57;100776.75;;;22.94;50.09
17254;BME280;32542;52.832;13.816;2023-08-31T12:18:07;100771.44;;;22.94;50.30
17254;BME280;32542;52.832;13.816;2023-08-31T12:21:10;100763.41;;;22.94;50.42
17254;BME280;32542;52.832;13.816;2023-08-31T12:24:13;100753.66;;;22.93;50.36
17254;BME280;32542;52.832;13.816;2023-08-31T12:27:20;100759.00;;;22.93;50.42
17254;BME280;32542;52.832;13.816;2023-08-31T12:30:23;100763.41;;;22.94;50.51
17254;BME280;32542;52.832;13.816;2023-08-31T12:33:27;100758.06;;;22.94;50.60
17254;BME280;32542;52.832;13.816;2023-08-31T12:36:30;100769.63;;;22.94;50.71
17254;BME280;32542;52.832;13.816;2023-08-31T12:39:33;100773.13;;;22.95;50.53
17254;BME280;32542;52.832;13.816;2023-08-31T12:42:37;100773.13;;;22.95;50.31
17254;BME280;32542;52.832;13.816;2023-08-31T12:45:40;100768.75;;;22.94;50.08
17254;BME280;32542;52.832;13.816;2023-08-31T12:48:43;100773.22;;;22.93;50.31
17254;BME280;32542;52.832;13.816;2023-08-31T12:51:46;100775.03;;;22.93;50.07
17254;BME280;32542;52.832;13.816;2023-08-31T12:54:50;100785.72;;;22.93;50.10
17254;BME280;32542;52.832;13.816;2023-08-31T12:57:54;100784.88;;;22.92;50.17
17254;BME280;32542;52.832;13.816;2023-08-31T13:00:57;100796.41;;;22.93;50.53
17254;BME280;32542;52.832;13.816;2023-08-31T13:04:01;100801.75;;;22.93;50.26
17254;BME280;32542;52.832;13.816;2023-08-31T13:07:04;100788.38;;;22.93;50.47
17254;BME280;32542;52.832;13.816;2023-08-31T13:10:08;100788.38;;;22.93;50.67
17254;BME280;32542;52.832;13.816;2023-08-31T13:13:12;100789.25;;;22.93;50.48
17254;BME280;32542;52.832;13.816;2023-08-31T13:16:16;100792.78;;;22.94;50.27
17254;BME280;32542;52.832;13.816;2023-08-31T13:19:19;100797.25;;;22.93;49.88
17254;BME280;32542;52.832;13.816;2023-08-31T13:22:22;100797.25;;;22.93;50.00
17254;BME280;32542;52.832;13.816;2023-08-31T13:25:24;100794.69;;;22.92;50.04
17254;BME280;32542;52.832;13.816;2023-08-31T13:28:29;100800.91;;;22.92;49.95
17254;BME280;32542;52.832;13.816;2023-08-31T13:31:33;100806.25;;;22.92;49.92
17254;BME280;32542;52.832;13.816;2023-08-31T13:34:36;100803.63;;;22.91;49.98
17254;BME280;32542;52.832;13.816;2023-08-31T13:37:39;100804.50;;;22.91;50.19
17254;BME280;32542;52.832;13.816;2023-08-31T13:40:43;100814.31;;;22.91;50.15
17254;BME280;32542;52.832;13.816;2023-08-31T13:43:47;100818.72;;;22.92;50.28
17254;BME280;32542;52.832;13.816;2023-08-31T13:46:51;100813.38;;;22.92;50.18
17254;BME280;32542;52.832;13.816;2023-08-31T13:49:54;100823.19;;;22.91;50.46
17254;BME280;32542;52.832;13.816;2023-08-31T13:52:57;100809.84;;;22.91;50.25
17254;BME280;32542;52.832;13.816;2023-08-31T13:56:00;100808.13;;;22.90;49.91
17254;BME280;32542;52.832;13.816;2023-08-31T13:59:04;100808.97;;;22.91;49.71
17254;BME280;32542;52.832;13.816;2023-08-31T14:02:07;100810.81;;;22.90;49.75
17254;BME280;32542;52.832;13.816;2023-08-31T14:05:11;100812.59;;;22.90;49.83
17254;BME280;32542;52.832;13.816;2023-08-31T14:08:14;100797.47;;;22.90;49.73
17254;BME280;32542;52.832;13.816;2023-08-31T14:11:17;100801.94;;;22.90;49.71
17254;BME280;32542;52.832;13.816;2023-08-31T14:14:21;100800.19;;;22.89;49.61
17254;BME280;32542;52.832;13.816;2023-08-31T14:17:25;100804.59;;;22.90;49.98
17254;BME280;32542;52.832;13.816;2023-08-31T14:20:28;100811.75;;;22.89;50.20
17254;BME280;32542;52.832;13.816;2023-08-31T14:23:31;100817.94;;;22.90;50.06
17254;BME280;32542;52.832;13.816;2023-08-31T14:26:34;100823.28;;;22.90;50.06
17254;BME280;32542;52.832;13.816;2023-08-31T14:29:38;100825.00;;;22.91;50.42
17254;BME280;32542;52.832;13.816;2023-08-31T14:32:41;100819.66;;;22.91;50.25
17254;BME280;32542;52.832;13.816;2023-08-31T14:35:44;100808.97;;;22.91;50.12
17254;BME280;32542;52.832;13.816;2023-08-31T14:38:47;100808.13;;;22.90;50.29
17254;BME280;32542;52.832;13.816;2023-08-31T14:41:50;100795.72;;;22.89;50.10
17254;BME280;32542;52.832;13.816;2023-08-31T14:44:54;100796.59;;;22.90;50.21
17254;BME280;32542;52.832;13.816;2023-08-31T14:47:57;100801.06;;;22.89;50.20
17254;BME280;32542;52.832;13.816;2023-08-31T14:51:00;100805.53;;;22.89;50.16
17254;BME280;32542;52.832;13.816;2023-08-31T14:54:04;100810.88;;;22.89;50.15
17254;BME280;32542;52.832;13.816;2023-08-31T14:57:07;100812.66;;;22.88;50.44
17254;BME280;32542;52.832;13.816;2023-08-31T15:00:12;100853.59;;;22.89;50.61
17254;BME280;32542;52.832;13.816;2023-08-31T15:03:16;100904.34;;;22.89;50.43
17254;BME280;32542;52.832;13.816;2023-08-31T15:06:19;100957.69;;;22.90;50.62
17254;BME280;32542;52.832;13.816;2023-08-31T15:09:22;100987.06;;;22.90;50.81
17254;BME280;32542;52.832;13.816;2023-08-31T15:12:25;100962.16;;;22.90;50.87
17254;BME280;32542;52.832;13.816;2023-08-31T15:15:30;100954.19;;;22.88;50.79
17254;BME280;32542;52.832;13.816;2023-08-31T15:18:33;100954.19;;;22.88;50.78
17254;BME280;32542;52.832;13.816;2023-08-31T15:21:36;100947.16;;;22.87;50.52
17254;BME280;32542;52.832;13.816;2023-08-31T15:24:39;100941.81;;;22.87;50.65
17254;BME280;32542;52.832;13.816;2023-08-31T15:27:44;100906.31;;;22.85;50.76
17254;BME280;32542;52.832;13.816;2023-08-31T15:30:48;100906.31;;;22.85;50.63
17254;BME280;32542;52.832;13.816;2023-08-31T15:33:51;100898.41;;;22.84;50.67
17254;BME280;32542;52.832;13.816;2023-08-31T15:36:54;100899.25;;;22.84;50.57
17254;BME280;32542;52.832;13.816;2023-08-31T15:39:57;100900.09;;;22.85;50.71
17254;BME280;32542;52.832;13.816;2023-08-31T15:43:00;100892.09;;;22.85;50.77
17254;BME280;32542;52.832;13.816;2023-08-31T15:46:05;100889.44;;;22.85;50.49
17254;BME280;32542;52.832;13.816;2023-08-31T15:49:08;100902.78;;;22.85;50.48
17254;BME280;32542;52.832;13.816;2023-08-31T15:52:11;100893.91;;;22.84;50.48